Create Custom Reports and Graphics: Custom Report

Upper Lake (UPL)

Current Conditions

10/18/19 5:00 PM (-07:00)
Updated Every 15 Minutes
Temp 65.0 °F   4.0
Canopy Temp 63.9 °F   3.6
RH 48 %   1
Dew Pt 45.1 °F   3.1
Wet Bulb 54.0 °F   2.9
Wind Dir W | 270 °
Wind Spd 3.4 mph   1.0
Wind Gust 14.1 mph   0.7
Daily Min Temp 39.3 °F   21.1
Daily Max Temp 69.8 °F   5.0
Latest Rain 0.00 In
Daily Rain 0.00 In

Upper Lake

Last 24 Hours

Hourly Data | America/Los_Angeles
as of 10/18/19 5:05 PM PDT
Date & Time Temp (°F) Canopy Temp (°F) RH (%) Dew Pt (°F) Wet Bulb (°F) Leaf Wet (mins) Wind Gst Dir (°) Wind Spd (mph) Wind Gust (mph) Latest Rain (In) Daily Rain (In) Daily Min Temp (°F) Daily Max Temp (°F) Daily Min CanT (°F) Daily Max CanT (°F)
10/18/19 - 1700 67.2 65.0 43 44.0 54.2 0.0 NNW | 337 2.9 14.1 0.00 0.00 39.3 69.8 39.6 67.6
10/18/19 - 1600 69.2 67.1 41 44.6 55.2 0.0 NW | 306 2.6 8.8 0.00 0.00 39.3 69.8 39.6 67.6
10/18/19 - 1500 67.5 66.3 45 45.5 55.0 0.0 NW | 313 3.0 10.6 0.00 0.00 39.3 68.9 39.6 67.0
10/18/19 - 1400 65.4 64.2 50 46.3 54.8 0.0 NNW | 328 3.5 12.3 0.00 0.00 39.3 66.6 39.6 65.6
10/18/19 - 1300 63.8 62.2 56 47.7 55.0 0.0 NW | 326 3.9 13.9 0.00 0.00 39.3 64.4 39.6 63.0
10/18/19 - 1200 62.8 60.8 63 50.2 56.1 0.0 WNW | 287 2.8 9.4 0.00 0.00 39.3 63.8 39.6 61.9
10/18/19 - 1100 58.4 57.0 80 52.4 55.9 0.0 WNW | 293 1.6 5.6 0.00 0.00 39.3 62.0 39.6 60.2
10/18/19 - 1000 51.8 51.6 94 50.0 51.5 0.0 SE | 135 0.7 3.3 0.00 0.00 39.3 55.6 39.6 55.0
10/18/19 - 0900 47.8 47.6 98 47.2 47.8 0.0 NE | 38 0.7 7.3 0.00 0.00 39.3 49.4 39.6 49.1
10/18/19 - 0800 46.7 46.7 97 45.9 46.7 0.0 NE | 36 0.7 4.5 0.00 0.00 39.3 47.1 39.6 47.1
10/18/19 - 0700 45.4 45.4 98 44.9 45.4 19.5 NNE | 22 1.1 7.9 0.00 0.00 39.3 46.5 39.6 46.4
10/18/19 - 0600 42.5 42.7 99 42.2 42.5 0.0 NE | 38 0.9 4.9 0.00 0.00 39.3 44.0 39.6 44.0
10/18/19 - 0500 42.1 42.3 99 42.0 42.1 0.0 NE | 34 1.5 7.7 0.00 0.00 39.3 42.5 39.6 42.8
10/18/19 - 0400 40.9 41.3 100 40.9 40.9 40.7 NE | 51 1.7 4.4 0.00 0.00 39.3 42.4 39.6 42.3
10/18/19 - 0300 39.7 40.1 100 39.7 39.7 40.8 WNW | 291 0.6 2.8 0.00 0.00 39.3 41.5 39.6 41.4
10/18/19 - 0200 40.2 40.4 100 40.1 40.2 0.0 NE | 43 2.1 5.7 0.00 0.00 39.3 41.5 39.6 41.4
10/18/19 - 0100 42.9 43.0 98 42.4 42.8 0.0 NE | 38 3.1 7.0 0.00 0.00 41.4 64.8 41.3 63.7
10/18/19 - 0000 43.7 44.2 98 43.2 43.7 0.0 NE | 39 1.7 5.4 0.00 0.00 42.5 64.8 42.8 63.7
10/17/19 - 2300 45.6 46.0 94 44.0 45.2 0.0 NE | 46 0.7 4.3 0.00 0.00 43.6 64.8 44.3 63.7
10/17/19 - 2200 50.8 50.6 85 46.6 49.2 0.0 SSW | 202 1.8 7.1 0.00 0.00 48.6 64.8 48.9 63.7
10/17/19 - 2100 53.2 53.3 79 46.8 50.4 0.0 WNW | 289 3.1 11.6 0.00 0.00 52.4 64.8 52.2 63.7
10/17/19 - 2000 54.1 54.4 73 45.8 50.2 0.0 N | 352 3.2 11.1 0.00 0.00 53.4 64.8 53.6 63.7
10/17/19 - 1900 56.5 56.3 64 44.3 50.4 0.0 NW | 307 3.0 10.8 0.00 0.00 55.4 64.8 55.3 63.7
10/17/19 - 1800 59.5 59.0 55 43.1 51.0 0.0 WNW | 288 3.8 14.6 0.00 0.00 58.0 64.8 57.5 63.7
10/17/19 - 1700 62.2 61.0 47 41.6 51.4 0.0 WNW | 290 3.9 13.5 0.00 0.00 60.4 64.8 59.7 63.7
Max 69.2 67.1 100 52.4 56.1 40.8 - 3.9 14.6 0.00 0.00 60.4 69.8 59.7 67.6
Avg 52.8 52.3 78 44.9 48.7 4.0 - 2.2 8.3 0.00 - - - - -
Min 39.7 40.1 41 39.7 39.7 0.0 - 0.6 2.8 0.00 0.00 39.3 41.5 39.6 41.4
Total - - - - - - - - - 0.00 - - - - -

Upper Lake Daily Summaries

Last 30 Days

Daily Data | America/Los_Angeles
as of 10/18/19 5:05 PM PDT
Date Daily Max Temp (°F) Max Temp Time Daily Min Temp (°F) Min Temp Time Daily Rain (In) Seasonal Rainfall (In) Wind Spd (mph) Daily Max Wind (mph) Max Wind Time Max Wind Dir (°) Dew Pt (°F) Max RH (%) Min RH (%) Chill Hrs <=45 (hrs) Chill Hrs Seas (hrs) Hrs <= 32F (hrs) Hrs <= 28F (hrs) GDDs (DL) Seas GDDs (DL) Leaf Wet (hrs) Daily Max CanT (°F) Daily Min CanT (°F) Hrs 70-85F (hrs) Hrs > 95F (hrs) Powdery Mildew Stress (pts) Degree Hrs (hrs) Bat Volt Min Day (V)
10/17/19 64.8 1253 41.4 0059 0.00 0.29 2.8 16.6 1438 W | 278 44.1 100 44 2.5 1,717.0 0.0 0.0 5.26 3,121 3.2 63.7 41.3 0.00 0.00 0 0.0 12.34
10/16/19 75.5 1441 32.0 0607 0.01 0.29 1.5 14.7 1559 NNW | 337 40.0 100 14 7.9 1,717.0 0.0 0.0 8.69 3,116 7.5 73.5 33.2 3.04 0.00 0 25.9 12.09
10/15/19 81.0 1604 33.4 0712 0.00 0.28 1.2 11.8 1519 S | 186 34.7 100 10 11.2 1,717.0 0.0 0.0 9.01 3,107 3.2 77.6 34.2 5.38 0.00 0 54.9 12.09
10/14/19 80.6 1600 31.4 0711 0.00 0.28 1.2 10.3 1324 S | 172 33.9 100 9 9.8 1,717.0 0.5 0.0 9.20 3,098 1.4 77.6 32.1 5.02 0.00 0 53.1 12.09
10/13/19 77.7 1602 31.5 0722 0.00 0.28 1.4 9.0 1902 W | 272 31.0 100 7 11.0 1,717.0 0.5 0.0 8.05 3,089 1.0 74.5 32.0 4.16 0.00 10 35.4 12.07
10/12/19 79.0 1612 29.4 0727 0.00 0.28 1.2 10.0 1939 WNW | 301 30.8 100 7 10.0 1,717.0 3.6 0.0 8.46 3,081 0.1 76.1 30.4 4.30 0.00 20 39.2 12.07
10/11/19 78.8 1615 28.4 0638 0.00 0.28 1.3 9.3 1353 SSE | 151 24.0 92 6 11.4 1,717.0 5.2 0.0 7.93 3,072 0.0 75.9 29.1 4.67 0.00 30 44.4 12.07
10/10/19 77.9 1559 26.5 0650 0.00 0.28 1.8 14.4 1420 SSE | 161 22.4 93 5 11.9 1,717.0 4.1 1.4 8.11 3,064 0.0 75.6 27.6 4.97 0.00 40 47.3 12.08
10/9/19 75.8 1541 34.1 2357 0.00 0.28 2.0 12.2 0142 N | 0 34.7 98 17 8.7 1,717.0 0.0 0.0 7.16 3,056 0.0 72.6 34.8 2.31 0.00 50 21.4 12.11
10/8/19 84.2 1454 39.0 0716 0.00 0.28 2.1 14.1 1512 W | 264 43.3 100 14 6.0 1,717.0 0.0 0.0 13.81 3,049 3.7 81.5 39.9 7.77 0.00 60 91.8 12.13
10/7/19 88.3 1547 38.0 0738 0.00 0.28 1.3 9.2 1812 WSW | 239 41.6 100 13 7.2 1,717.0 0.0 0.0 13.19 3,035 4.1 83.6 38.8 7.72 0.00 40 105.9 12.13
10/6/19 84.2 1620 37.4 0702 0.00 0.28 1.5 10.1 1416 SSE | 167 39.5 100 13 7.4 1,717.0 0.0 0.0 11.17 3,022 4.8 81.6 38.6 6.79 0.00 20 84.0 12.12
10/5/19 80.6 1606 35.6 0627 0.00 0.28 1.4 9.0 1450 S | 181 38.5 100 13 8.1 1,717.0 0.0 0.0 9.22 3,011 6.8 76.6 36.5 5.55 0.00 0 54.7 12.11
10/4/19 72.4 1623 35.6 0715 0.00 0.28 2.5 13.5 0102 NW | 324 37.2 98 16 5.1 1,717.0 0.0 0.0 7.20 3,002 0.0 70.3 36.3 0.10 0.00 0 14.6 12.12
10/3/19 72.1 1352 37.1 0706 0.00 0.28 2.4 18.1 1935 W | 272 40.1 100 33 7.2 1,717.0 0.0 0.0 7.53 2,994 1.4 70.0 37.9 0.00 0.00 0 14.8 12.12
10/2/19 76.7 1518 33.1 0700 0.00 0.28 1.5 12.5 1835 W | 270 36.6 100 16 8.9 1,717.0 0.0 0.0 8.68 2,987 7.4 74.1 33.7 3.37 0.00 0 33.0 12.11
10/1/19 70.6 1552 31.4 0719 0.00 0.28 1.6 12.7 1825 NNW | 334 37.1 100 21 11.1 1,717.0 0.7 0.0 6.41 2,978 7.9 68.5 32.1 0.00 0.00 0 8.0 12.12
9/30/19 62.4 1440 33.5 0717 0.01 0.28 1.9 17.2 1440 NNW | 327 39.0 100 35 11.0 1,717.0 0.0 0.0 3.40 2,972 8.5 61.4 34.1 0.00 0.00 10 0.0 12.06
9/29/19 63.3 1257 34.4 0713 0.02 0.27 2.1 13.4 1710 NNW | 338 40.2 100 37 7.8 1,717.0 0.0 0.0 3.15 2,968 8.0 61.5 35.4 0.00 0.00 20 0.0 12.11
9/28/19 66.0 1422 47.5 0047 0.00 0.25 3.8 25.8 1220 NW | 314 39.3 81 26 0.0 1,717.0 0.0 0.0 5.79 2,965 0.0 65.4 47.9 0.00 0.00 30 0.0 12.15
9/27/19 79.1 1530 48.6 0643 0.00 0.25 2.3 12.8 1336 NW | 323 47.3 100 8 0.0 1,717.0 0.0 0.0 12.62 2,959 3.9 76.6 49.4 5.72 0.00 40 56.2 12.17
9/26/19 88.8 1146 51.3 0725 0.00 0.25 2.9 18.0 1458 SSE | 147 55.2 100 27 0.0 1,717.0 0.0 0.0 18.84 2,947 0.0 86.5 51.6 5.59 0.00 50 161.4 12.16
9/25/19 97.4 1508 52.7 0711 0.00 0.25 1.7 12.9 1814 NE | 40 55.4 100 16 0.0 1,717.0 0.0 0.0 21.30 2,928 0.6 93.8 52.8 2.76 3.28 60 210.7 12.17
9/24/19 95.2 1549 45.4 0627 0.00 0.25 1.5 10.5 1445 S | 181 50.8 100 14 0.0 1,717.0 0.0 0.0 18.31 2,907 0.1 91.3 45.4 3.75 0.02 70 169.5 12.16
9/23/19 87.6 1617 45.9 0723 0.00 0.25 2.1 10.4 1406 SE | 143 50.6 100 15 0.0 1,717.0 0.0 0.0 14.04 2,888 4.6 83.5 46.6 7.85 0.00 80 107.6 12.13
9/22/19 83.3 1502 46.1 0648 0.00 0.25 1.8 14.9 1634 NNW | 333 52.2 100 31 0.0 1,717.0 0.0 0.0 13.83 2,874 6.7 80.9 47.1 7.03 0.00 60 83.4 12.15
9/21/19 84.6 1605 43.5 0650 0.00 0.25 1.8 11.8 1420 SSE | 152 48.4 100 19 1.4 1,717.0 0.0 0.0 14.15 2,860 6.2 81.6 44.0 8.46 0.00 40 109.7 12.16
9/20/19 80.9 1610 43.1 0702 0.00 0.25 1.9 10.3 1436 SSW | 199 48.5 100 25 2.7 1,717.0 0.0 0.0 12.24 2,846 7.6 78.2 43.8 7.44 0.00 20 77.4 12.12
9/19/19 77.4 1617 42.3 0710 0.00 0.25 1.9 10.5 1447 S | 174 48.9 100 32 2.7 1,717.0 0.0 0.0 9.80 2,834 7.9 74.3 42.7 2.96 0.00 0 35.2 12.11
9/18/19 69.1 1212 52.6 0703 0.07 0.25 2.2 15.0 1610 WSW | 245 54.4 100 52 0.0 1,717.0 0.0 0.0 9.58 2,824 7.2 68.2 52.8 0.00 0.00 0 2.1 12.17
Max 97.4 - 52.7 - 0.07 - 3.8 25.8 - - 55.4 100 52 11.9 - 5.2 1.4 21.30 - 8.5 93.8 52.8 8.46 3.28 80 210.7 12.34
Avg - - - - - - 1.9 - - - 41.3 - - 5.7 - 0.5 0.0 10.20 - - - - 3.89 0.11 - - -
Min 62.4 - 26.5 - 0.00 - 1.2 9.0 - - 22.4 81 5 0.0 - 0.0 0.0 3.15 - 0.0 61.4 27.6 0.00 0.00 0 0.0 12.06
Total - - - - - - - - - - - - - 171.2 - 14.6 1.4 306.13 - - - - 116.70 3.31 - - -

Upper Lake Climate Summary

Current Year

Current Year | Showing 1/1/19 - 10/17/19
as of 10/18/19 5:05 PM PDT
Temperature (°F) Precip (in) Days
Month Days Avg Max Avg Min Max Max Min Min Total Daily Min Temp < 28 Daily Min Temp < 32 Daily Max Temp > 90 Daily Max Temp > 100 Daily Rain > 0.01 Daily Rain > 0.1
Jan 2019 31 57.8 36.4 71.8 24.8 9.44 3 9 0 0 11 11
Feb 2019 28 49.6 34 57.1 23 15.92 8 12 0 0 19 16
Mar 2019 31 59.4 37.1 74 27.9 6.68 1 4 0 0 15 11
Apr 2019 30 71.5 44.9 89.7 37.6 0.94 0 0 0 0 8 2
May 2019 31 73.7 44.5 86.5 35.8 3.63 0 0 0 0 9 5
Jun 2019 30 87.2 50.8 97 39.1 0.01 0 0 12 0 0 0
Jul 2019 31 89.9 53.2 97.5 47.9 0.03 0 0 17 0 1 0
Aug 2019 31 91.7 53.8 98.8 48 0.01 0 0 21 0 0 0
Sep 2019 30 83.1 46.8 97.4 33.5 0.24 0 0 11 0 3 1
Oct 2019 17 77.7 33.9 88.3 26.5 0.01 1 6 0 0 0 0
Total 290 - - - - 36.91 13 31 61 0 66 46
Average 29 74.2 43.5 - - 3.69 1.3 3.1 6.1 0 6.6 4.6
Maximum 31 91.7 53.8 98.8 - 15.92 8 12 21 0 19 16
Minimum 17 49.6 33.9 - 23 0.01 0 0 0 0 0 0

Upper Lake Climate Summary

Last Year

Last Year | Showing 1/1/18 - 12/31/18
as of 10/18/19 5:05 PM PDT
Temperature (°F) Precip (in) Days
Month Days Avg Max Avg Min Max Max Min Min Total Daily Min Temp < 28 Daily Min Temp < 32 Daily Max Temp > 90 Daily Max Temp > 100 Daily Rain > 0.01 Daily Rain > 0.1
Jan 2018 31 56.5 36.2 69.7 27.7 5.62 2 8 0 0 13 9
Feb 2018 28 62.4 29.1 78.7 20.6 0.9 13 19 0 0 3 2
Mar 2018 31 60.7 34 83.7 24.1 5.7 3 11 0 0 16 13
Apr 2018 30 69 39.5 84.5 30.2 4.78 0 1 0 0 8 5
May 2018 31 77.9 45.3 92.1 35.3 0.26 0 0 1 0 2 1
Jun 2018 30 86.3 47.6 97.4 37.7 0 0 0 11 0 0 0
Jul 2018 31 95.2 53.2 103.1 46.2 0 0 0 24 4 0 0
Aug 2018 31 90.9 50.3 97.2 46.6 0 0 0 18 0 0 0
Sep 2018 30 86.7 44.5 96.2 39.5 0 0 0 12 0 0 0
Oct 2018 31 77.7 40.7 85.6 31.9 1.25 0 1 0 0 4 3
Nov 2018 30 66.4 32.5 82.4 20.4 5.43 13 15 0 0 7 7
Dec 2018 31 55.2 33.6 63.7 26.1 3.34 4 14 0 0 12 7
Total 365 - - - - 27.28 35 69 66 4 65 47
Average 30.4 73.7 40.5 - - 2.27 2.9 5.8 5.5 0.3 5.4 3.9
Maximum 31 95.2 53.2 103.1 - 5.7 13 19 24 4 16 13
Minimum 28 55.2 29.1 - 20.4 0 0 0 0 0 0 0
Calm: 2.1%
Calm: 0.3%